Pagrindinis puslapis
METAR-TAF:

METAR-TAF

Oro uostai :

Tan Son Nhat oro uostas

Hošiminas, Vietnamas

platuma: 10-49N, ilguma: 106-40E, Aukštis: 19 m

Dabartinis oras

Ataskaita buvo paskelbta 32 minutes, ne 23:00 UTC
Vėjas 2 kt nuo kintamojo kryptimis
Temperatūra 25°C
Drėgmė 100%
Slėgis 1010 hPa
Matomumas: 6000 m
Išsisklaidę debesys ne aukštis 1500 ft
Su prošvaistėmis ne aukštis 5000 ft

METAR: VVTS 192300Z VRB02KT 6000 SCT015 BKN050 25/25 Q1010 NOSIG

Laikas: 06:32 (23:32 UTC)

Prognozė

Ataskaita buvo paskelbta 6 valandos ir 32 minutes, ne 17:00 UTC
Prognozė galioja nuo 19 metu 18 UTC su 20 metu 24 UTC
Vėjas 8 kt iš Pietvakarių
Matomumas 10 km arba daugiau
Mažai debesys ne aukštis 1700 ft
Laikinai
nuo 20 metu 08 UTC su 20 metu 10 UTC
Vėjas 15 kt iš Pietvakarių su gūsio iki 28 kt
Matomumas: 5000 m
Su prošvaistėmis ne aukštis 1500 ft
Mažai debesys ne aukštis 1700 ft, Liūtiniai kamuoliniai debesys.
perkūnija, lietus

TAF: VVTS 191700Z 1918/2024 23008KT 9999 FEW017 TEMPO 2008/2010 23015G28KT 5000 TSRA BKN015 FEW017CB

Orai ataskaitas ir orų prognozės (METAR, TAF).

turimą stotys yra geltonos ir raudonos taškus žemėlapyje.

Perkelti pele per norėdami pamatyti stoties vardą.

Tada spustelėkite, norėdami matyti oro stebėjimo ir prognozės.

Norėdami pakeisti žemėlapį: spustelėkite ant žalios mygtukų su juodo kryžiaus žemyn,; žalią mygtuką su brūkšneliu, jei norite nutolinti; arba žalių rodyklių gretimoms žemėlapius.


METAR-TAF: